Time;durP1;ratioP1;P1;durP2;ratioP2;P2;SDS_P1;SDS_P2;PMS_P1;PMS_P2;Temp;Humidity;BMP_temperature;BMP_pressure;BME280_temperature;BME280_humidity;BME280_pressure;Samples;Min_cycle;Max_cycle;Signal;HPM_P1;HPM_P2
2021/12/09 00:00:43;;;;;;;34.70;27.40;;;;;;;;;;6236005;28;20764;-63
2021/12/09 00:04:07;;;;;;;37.27;27.13;;;;;;;;;;6229650;28;20232;-63
2021/12/09 00:07:28;;;;;;;36.03;27.43;;;;;;;;;;6239653;28;20220;-62
2021/12/09 00:10:49;;;;;;;36.80;27.63;;;;;;;;;;6236451;28;20312;-64
2021/12/09 00:14:13;;;;;;;33.80;28.10;;;;;;;;;;6240803;28;20518;-63
2021/12/09 00:17:34;;;;;;;32.27;24.70;;;;;;;;;;6206826;28;20233;-63
2021/12/09 00:20:55;;;;;;;35.27;26.53;;;;;;;;;;6235688;28;20260;-62
2021/12/09 00:24:16;;;;;;;36.50;27.47;;;;;;;;;;6235709;28;20229;-63
2021/12/09 00:27:37;;;;;;;36.10;27.83;;;;;;;;;;6233023;28;20232;-63
2021/12/09 00:31:00;;;;;;;38.33;26.90;;;;;;;;;;6234651;28;20503;-62
2021/12/09 00:34:29;;;;;;;37.27;27.33;;;;;;;;;;6242082;28;20495;-63
2021/12/09 00:37:54;;;;;;;37.77;27.43;;;;;;;;;;6220470;28;20228;-62
2021/12/09 00:41:16;;;;;;;33.57;26.37;;;;;;;;;;6232390;28;20232;-63
2021/12/09 00:44:36;;;;;;;34.50;26.43;;;;;;;;;;6235918;28;20224;-63
2021/12/09 00:47:58;;;;;;;37.03;28.40;;;;;;;;;;6238011;28;20220;-62
2021/12/09 00:51:19;;;;;;;35.67;27.27;;;;;;;;;;6227788;28;20236;-62
2021/12/09 00:54:42;;;;;;;33.87;26.87;;;;;;;;;;6235953;28;20228;-61
2021/12/09 00:58:03;;;;;;;34.83;27.77;;;;;;;;;;6241080;28;20260;-63
2021/12/09 01:01:25;;;;;;;39.60;26.83;;;;;;;;;;6234042;28;20248;-63
2021/12/09 01:04:47;;;;;;;36.07;27.47;;;;;;;;;;6188483;28;20228;-63
2021/12/09 01:08:08;;;;;;;35.90;26.93;;;;;;;;;;6220338;28;20228;-63
2021/12/09 01:11:29;;;;;;;33.73;25.50;;;;;;;;;;6210731;28;20249;-62
2021/12/09 01:14:50;;;;;;;37.73;27.07;;;;;;;;;;6219654;28;20260;-64
2021/12/09 01:18:11;;;;;;;38.23;27.07;;;;;;;;;;6223440;28;20232;-63
2021/12/09 01:21:33;;;;;;;40.23;29.60;;;;;;;;;;6235246;28;20232;-63
2021/12/09 01:24:54;;;;;;;38.80;29.80;;;;;;;;;;6214669;28;20317;-63
2021/12/09 01:28:21;;;;;;;37.20;28.60;;;;;;;;;;6226748;28;20512;-62
2021/12/09 01:31:51;;;;;;;42.07;29.67;;;;;;;;;;6209278;28;20496;-63
2021/12/09 01:35:12;;;;;;;36.67;27.83;;;;;;;;;;6236708;28;20221;-62
2021/12/09 01:38:34;;;;;;;44.07;31.40;;;;;;;;;;6225964;28;20247;-63
2021/12/09 01:41:55;;;;;;;41.77;31.70;;;;;;;;;;6237687;28;20492;-62
2021/12/09 01:45:16;;;;;;;40.07;30.43;;;;;;;;;;6233755;28;20225;-63
2021/12/09 01:48:38;;;;;;;42.10;30.30;;;;;;;;;;6237834;28;20224;-62
2021/12/09 01:51:59;;;;;;;46.33;32.53;;;;;;;;;;6238137;28;20223;-62
2021/12/09 01:55:22;;;;;;;38.43;31.13;;;;;;;;;;6230756;28;20666;-64
2021/12/09 01:58:43;;;;;;;44.67;31.10;;;;;;;;;;6237117;28;20256;-63
2021/12/09 02:02:04;;;;;;;48.93;32.50;;;;;;;;;;6214803;28;20240;-62
2021/12/09 02:05:26;;;;;;;45.57;31.73;;;;;;;;;;6230547;28;20236;-62
2021/12/09 02:08:47;;;;;;;48.20;32.03;;;;;;;;;;6236482;28;20523;-63
2021/12/09 02:12:11;;;;;;;45.30;31.73;;;;;;;;;;6244751;28;20233;-61
2021/12/09 02:15:31;;;;;;;41.87;30.83;;;;;;;;;;6235842;28;21025;-62
2021/12/09 02:18:52;;;;;;;44.07;31.23;;;;;;;;;;6218861;28;20222;-62
2021/12/09 02:22:16;;;;;;;45.53;31.17;;;;;;;;;;6212834;28;20260;-62
2021/12/09 02:25:38;;;;;;;43.93;31.47;;;;;;;;;;6212635;28;20312;-63
2021/12/09 02:29:00;;;;;;;49.00;36.57;;;;;;;;;;6222138;28;20237;-63
2021/12/09 02:32:21;;;;;;;46.00;32.63;;;;;;;;;;6228060;28;20384;-62
2021/12/09 02:35:41;;;;;;;47.60;32.10;;;;;;;;;;6217379;28;20233;-62
2021/12/09 02:39:04;;;;;;;47.40;34.43;;;;;;;;;;6227298;28;20229;-63
2021/12/09 02:42:25;;;;;;;48.27;35.27;;;;;;;;;;6228651;28;20228;-63
2021/12/09 02:45:52;;;;;;;45.67;32.43;;;;;;;;;;6241148;28;20237;-62
2021/12/09 02:49:17;;;;;;;47.70;33.80;;;;;;;;;;6224317;28;20228;-62
2021/12/09 02:52:39;;;;;;;45.70;31.60;;;;;;;;;;6230137;28;20252;-62
2021/12/09 02:56:02;;;;;;;47.00;31.77;;;;;;;;;;6236637;28;20236;-62
2021/12/09 02:59:23;;;;;;;49.20;33.63;;;;;;;;;;6221522;28;20257;-63
2021/12/09 03:02:44;;;;;;;50.27;36.17;;;;;;;;;;6226265;28;20232;-63
2021/12/09 03:06:05;;;;;;;45.40;33.70;;;;;;;;;;6237286;28;20327;-63
2021/12/09 03:09:27;;;;;;;47.13;34.37;;;;;;;;;;6233889;28;20220;-62
2021/12/09 03:12:52;;;;;;;48.20;33.53;;;;;;;;;;6233704;28;20516;-63
2021/12/09 03:16:12;;;;;;;45.50;34.13;;;;;;;;;;6236854;28;20231;-62
2021/12/09 03:19:33;;;;;;;54.57;34.83;;;;;;;;;;6237969;28;20220;-63
2021/12/09 03:22:54;;;;;;;47.63;33.73;;;;;;;;;;6236915;28;20229;-62
2021/12/09 03:26:20;;;;;;;45.87;31.27;;;;;;;;;;6231019;28;20227;-62
2021/12/09 03:29:43;;;;;;;46.20;33.33;;;;;;;;;;6242299;28;20237;-62
2021/12/09 03:33:04;;;;;;;52.10;33.67;;;;;;;;;;6238971;28;20266;-62
2021/12/09 03:36:28;;;;;;;50.30;34.90;;;;;;;;;;6225702;28;20228;-62
2021/12/09 03:39:50;;;;;;;46.70;32.43;;;;;;;;;;6238733;28;20548;-62
2021/12/09 03:43:10;;;;;;;52.17;35.20;;;;;;;;;;6233957;28;20235;-62
2021/12/09 03:46:33;;;;;;;47.43;34.50;;;;;;;;;;6238202;28;20237;-62
2021/12/09 03:49:54;;;;;;;51.70;35.87;;;;;;;;;;6237075;28;20228;-62
2021/12/09 03:53:15;;;;;;;51.07;33.40;;;;;;;;;;6233882;28;20228;-63
2021/12/09 03:56:37;;;;;;;53.63;37.20;;;;;;;;;;6235592;28;20299;-63
2021/12/09 03:59:57;;;;;;;50.90;34.67;;;;;;;;;;6241551;28;20236;-62
2021/12/09 04:03:20;;;;;;;49.73;34.97;;;;;;;;;;6239951;28;20606;-63
2021/12/09 04:06:41;;;;;;;53.93;35.10;;;;;;;;;;6236814;28;20597;-63
2021/12/09 04:10:03;;;;;;;53.13;35.70;;;;;;;;;;6237994;28;20311;-62
2021/12/09 04:13:24;;;;;;;58.40;38.80;;;;;;;;;;6244465;28;20236;-62
2021/12/09 04:16:45;;;;;;;50.57;35.33;;;;;;;;;;6239035;28;20228;-61
2021/12/09 04:20:09;;;;;;;47.37;34.03;;;;;;;;;;6240638;28;20248;-62
2021/12/09 04:23:30;;;;;;;52.67;36.67;;;;;;;;;;6239792;28;20235;-63
2021/12/09 04:26:53;;;;;;;51.97;34.27;;;;;;;;;;6243392;28;20223;-61
2021/12/09 04:30:15;;;;;;;54.10;34.60;;;;;;;;;;6234893;28;20232;-62
2021/12/09 04:33:36;;;;;;;54.53;37.57;;;;;;;;;;6240463;28;20253;-63
2021/12/09 04:36:58;;;;;;;46.50;34.73;;;;;;;;;;6238391;28;20221;-63
2021/12/09 04:40:19;;;;;;;57.20;38.80;;;;;;;;;;6233902;28;20251;-63
2021/12/09 04:43:42;;;;;;;49.23;33.60;;;;;;;;;;6231398;28;20233;-63
2021/12/09 04:47:03;;;;;;;52.97;38.40;;;;;;;;;;6236548;28;20252;-64
2021/12/09 04:50:25;;;;;;;51.93;35.23;;;;;;;;;;6236407;28;20224;-62
2021/12/09 04:53:47;;;;;;;53.80;38.00;;;;;;;;;;6236366;28;20308;-63
2021/12/09 04:57:08;;;;;;;48.53;34.03;;;;;;;;;;6238070;28;20229;-63
2021/12/09 05:00:31;;;;;;;54.67;35.70;;;;;;;;;;6234638;28;20459;-61
2021/12/09 05:03:52;;;;;;;46.43;35.23;;;;;;;;;;6231704;28;20248;-62
2021/12/09 05:07:13;;;;;;;54.37;34.60;;;;;;;;;;6236838;28;20287;-62
2021/12/09 05:10:50;;;;;;;54.27;36.03;;;;;;;;;;6233705;28;20216;-62
2021/12/09 05:14:11;;;;;;;46.83;34.97;;;;;;;;;;6235708;28;20229;-61
2021/12/09 05:17:32;;;;;;;53.03;36.67;;;;;;;;;;6231261;28;20279;-62
2021/12/09 05:20:53;;;;;;;58.80;34.70;;;;;;;;;;6231701;28;20228;-62
2021/12/09 05:24:16;;;;;;;55.83;37.93;;;;;;;;;;6233629;28;20228;-63
2021/12/09 05:27:38;;;;;;;52.43;35.00;;;;;;;;;;6238151;28;20530;-63
2021/12/09 05:34:41;;;;;;;52.00;34.37;;;;;;;;;;6242091;28;20229;-62
2021/12/09 05:38:02;;;;;;;46.67;32.37;;;;;;;;;;6233843;28;20613;-61
2021/12/09 05:41:22;;;;;;;45.27;30.90;;;;;;;;;;6236831;28;20244;-62
2021/12/09 05:44:45;;;;;;;50.37;34.20;;;;;;;;;;6241156;28;20503;-61
2021/12/09 05:48:07;;;;;;;47.90;33.60;;;;;;;;;;6239195;28;20239;-63
2021/12/09 05:51:28;;;;;;;48.77;35.10;;;;;;;;;;6232458;28;20229;-62
2021/12/09 05:54:48;;;;;;;46.70;33.53;;;;;;;;;;6234748;28;20221;-62
2021/12/09 05:58:09;;;;;;;49.63;35.30;;;;;;;;;;6242527;28;20228;-63
2021/12/09 06:01:32;;;;;;;48.77;34.10;;;;;;;;;;6234300;28;20240;-62
2021/12/09 06:04:53;;;;;;;47.67;34.83;;;;;;;;;;6238718;28;20225;-63
2021/12/09 06:08:14;;;;;;;48.90;37.00;;;;;;;;;;6235322;28;20221;-63
2021/12/09 06:11:35;;;;;;;52.00;36.23;;;;;;;;;;6236661;28;20590;-63
2021/12/09 06:14:55;;;;;;;57.50;37.27;;;;;;;;;;6237908;28;20677;-63
2021/12/09 06:18:18;;;;;;;48.53;34.73;;;;;;;;;;6243810;28;20231;-61
2021/12/09 06:21:38;;;;;;;49.53;34.60;;;;;;;;;;6233923;28;20841;-63
2021/12/09 06:24:59;;;;;;;51.20;35.60;;;;;;;;;;6239247;28;20237;-63
2021/12/09 06:28:21;;;;;;;51.00;34.43;;;;;;;;;;6211861;28;20224;-62
2021/12/09 06:31:42;;;;;;;47.83;34.97;;;;;;;;;;6236068;28;20679;-61
2021/12/09 06:35:05;;;;;;;49.47;34.90;;;;;;;;;;6238357;28;20233;-63
2021/12/09 06:38:26;;;;;;;50.37;34.80;;;;;;;;;;6236112;28;20233;-63
2021/12/09 06:41:46;;;;;;;47.43;34.10;;;;;;;;;;6235632;28;20237;-63
2021/12/09 06:45:09;;;;;;;47.53;34.83;;;;;;;;;;6234255;28;20594;-61
2021/12/09 06:48:30;;;;;;;48.07;35.10;;;;;;;;;;6234864;28;20319;-63
2021/12/09 06:51:52;;;;;;;51.77;33.90;;;;;;;;;;6219660;28;20228;-64
2021/12/09 06:55:15;;;;;;;50.63;35.60;;;;;;;;;;6227477;28;20232;-62
2021/12/09 06:58:36;;;;;;;51.03;34.60;;;;;;;;;;6226435;28;20362;-64
2021/12/09 07:01:57;;;;;;;54.50;35.17;;;;;;;;;;6225639;28;22412;-63
2021/12/09 07:05:20;;;;;;;52.03;35.77;;;;;;;;;;6230594;28;20308;-64
2021/12/09 07:08:45;;;;;;;53.83;37.57;;;;;;;;;;6228271;28;20323;-62
2021/12/09 07:12:08;;;;;;;48.53;35.23;;;;;;;;;;6228646;28;20233;-63
2021/12/09 07:15:28;;;;;;;53.17;36.87;;;;;;;;;;6227611;28;20351;-63
2021/12/09 07:18:49;;;;;;;51.53;35.40;;;;;;;;;;6230039;28;20327;-63
2021/12/09 07:22:10;;;;;;;54.67;38.17;;;;;;;;;;6229864;28;20240;-63
2021/12/09 07:25:33;;;;;;;50.87;35.90;;;;;;;;;;6225584;28;20640;-62
2021/12/09 07:28:54;;;;;;;52.13;37.63;;;;;;;;;;6226492;28;20826;-63
2021/12/09 07:32:14;;;;;;;51.90;36.67;;;;;;;;;;6222162;28;20546;-64
2021/12/09 07:35:36;;;;;;;52.93;37.47;;;;;;;;;;6229814;28;20613;-62
2021/12/09 07:38:57;;;;;;;50.13;36.23;;;;;;;;;;6232047;28;20489;-63
2021/12/09 07:42:19;;;;;;;51.40;35.47;;;;;;;;;;6226370;28;20229;-63
2021/12/09 07:45:40;;;;;;;54.87;38.30;;;;;;;;;;6226762;28;20330;-63
2021/12/09 07:49:01;;;;;;;47.73;35.27;;;;;;;;;;6225413;28;20232;-63
2021/12/09 07:52:22;;;;;;;55.93;38.70;;;;;;;;;;6222747;28;20224;-63
2021/12/09 07:55:43;;;;;;;53.87;37.13;;;;;;;;;;6228479;28;20236;-63
2021/12/09 07:59:05;;;;;;;60.30;38.83;;;;;;;;;;6225214;28;20228;-63
2021/12/09 08:02:26;;;;;;;52.30;43.50;;;;;;;;;;6224403;28;21238;-62
2021/12/09 08:05:48;;;;;;;51.27;36.40;;;;;;;;;;6219169;28;20239;-61
2021/12/09 08:09:09;;;;;;;50.33;36.33;;;;;;;;;;6225101;28;20228;-62
2021/12/09 08:12:30;;;;;;;56.23;37.73;;;;;;;;;;6227972;28;20319;-62
2021/12/09 08:15:54;;;;;;;54.30;39.03;;;;;;;;;;6223951;28;20225;-61
2021/12/09 08:19:16;;;;;;;57.73;40.37;;;;;;;;;;6221250;28;20238;-62
2021/12/09 08:22:37;;;;;;;48.80;35.43;;;;;;;;;;6224836;28;20499;-62
2021/12/09 08:25:58;;;;;;;52.20;37.10;;;;;;;;;;6224039;28;20230;-62
2021/12/09 08:29:19;;;;;;;61.20;40.00;;;;;;;;;;6200035;28;20515;-62
2021/12/09 08:32:42;;;;;;;58.33;39.17;;;;;;;;;;6221708;28;20236;-63
2021/12/09 08:36:03;;;;;;;57.80;38.07;;;;;;;;;;6227529;28;20245;-61
2021/12/09 08:39:24;;;;;;;51.00;36.27;;;;;;;;;;6229537;28;20224;-63
2021/12/09 08:42:45;;;;;;;57.23;39.80;;;;;;;;;;6231435;28;20224;-63
2021/12/09 08:46:06;;;;;;;52.30;36.60;;;;;;;;;;6233242;28;20252;-63
2021/12/09 08:49:28;;;;;;;60.00;39.37;;;;;;;;;;6234616;28;20249;-62
2021/12/09 08:52:52;;;;;;;65.07;39.63;;;;;;;;;;6231173;28;20256;-63
2021/12/09 08:56:13;;;;;;;51.83;35.13;;;;;;;;;;6231270;28;20228;-63
2021/12/09 08:59:34;;;;;;;60.60;38.73;;;;;;;;;;6230960;28;20237;-62
2021/12/09 09:02:55;;;;;;;56.73;36.17;;;;;;;;;;6232219;28;20236;-62
2021/12/09 09:06:17;;;;;;;54.20;38.57;;;;;;;;;;6227582;28;20228;-62
2021/12/09 09:09:39;;;;;;;61.40;42.77;;;;;;;;;;6230249;28;20228;-63
2021/12/09 09:13:00;;;;;;;60.87;37.57;;;;;;;;;;6234523;28;20232;-61
2021/12/09 09:16:21;;;;;;;65.97;43.97;;;;;;;;;;6232985;28;21742;-63
2021/12/09 09:19:42;;;;;;;57.50;38.53;;;;;;;;;;6235796;28;20237;-62
2021/12/09 09:23:04;;;;;;;52.97;35.03;;;;;;;;;;6221901;28;20307;-61
2021/12/09 09:26:27;;;;;;;56.63;38.93;;;;;;;;;;6233578;28;20558;-61
2021/12/09 09:29:48;;;;;;;61.97;40.17;;;;;;;;;;6233629;28;20229;-61
2021/12/09 09:33:11;;;;;;;59.53;37.37;;;;;;;;;;6227192;28;20464;-63
2021/12/09 09:36:32;;;;;;;59.60;40.77;;;;;;;;;;6215317;28;20232;-62
2021/12/09 09:39:54;;;;;;;56.67;39.17;;;;;;;;;;6225496;28;20236;-63
2021/12/09 09:43:28;;;;;;;58.23;39.63;;;;;;;;;;6234181;28;20590;-61
2021/12/09 09:46:49;;;;;;;55.47;37.10;;;;;;;;;;6226814;28;20224;-60
2021/12/09 09:50:12;;;;;;;54.10;37.47;;;;;;;;;;6226857;28;20236;-63
2021/12/09 09:53:34;;;;;;;59.70;37.30;;;;;;;;;;6229111;28;20563;-63
2021/12/09 09:56:56;;;;;;;57.07;37.73;;;;;;;;;;6228864;28;20228;-63
2021/12/09 10:00:18;;;;;;;60.40;40.73;;;;;;;;;;6229844;28;20232;-63
2021/12/09 10:03:42;;;;;;;53.53;38.20;;;;;;;;;;6230309;28;20344;-62
2021/12/09 10:07:04;;;;;;;56.37;38.83;;;;;;;;;;6237801;28;20244;-63
2021/12/09 10:10:25;;;;;;;60.30;38.03;;;;;;;;;;6231139;28;20623;-62
2021/12/09 10:13:47;;;;;;;54.23;39.20;;;;;;;;;;6234582;28;20225;-63
2021/12/09 10:17:10;;;;;;;53.50;36.97;;;;;;;;;;6224691;28;20682;-63
2021/12/09 10:20:50;;;;;;;56.57;40.17;;;;;;;;;;6231917;28;20225;-65
2021/12/09 10:24:12;;;;;;;57.63;39.47;;;;;;;;;;6229699;28;20236;-63
2021/12/09 10:27:35;;;;;;;58.43;38.97;;;;;;;;;;6234923;28;20762;-64
2021/12/09 10:31:11;;;;;;;57.43;39.47;;;;;;;;;;6236005;28;20523;-63
2021/12/09 10:34:36;;;;;;;55.03;39.33;;;;;;;;;;6233004;28;20229;-63
2021/12/09 10:37:57;;;;;;;58.47;39.13;;;;;;;;;;6237982;28;20220;-62
2021/12/09 10:41:33;;;;;;;60.07;41.53;;;;;;;;;;6238140;28;20228;-62
2021/12/09 10:45:04;;;;;;;59.70;39.80;;;;;;;;;;6229960;28;20256;-62
2021/12/09 10:48:40;;;;;;;57.57;39.50;;;;;;;;;;6231890;28;20232;-62
2021/12/09 10:52:20;;;;;;;57.70;39.23;;;;;;;;;;6236995;28;20236;-62
2021/12/09 10:55:42;;;;;;;56.43;38.83;;;;;;;;;;6231605;28;20236;-63
2021/12/09 10:59:03;;;;;;;60.90;40.93;;;;;;;;;;6235613;28;20712;-63
2021/12/09 11:02:25;;;;;;;62.97;40.53;;;;;;;;;;6230848;28;20622;-63
2021/12/09 11:05:52;;;;;;;56.83;38.03;;;;;;;;;;6232472;28;20228;-63
2021/12/09 11:09:13;;;;;;;58.67;39.20;;;;;;;;;;6214922;28;20228;-63
2021/12/09 11:12:34;;;;;;;60.23;40.33;;;;;;;;;;6232763;28;20224;-63
2021/12/09 11:15:56;;;;;;;55.27;36.60;;;;;;;;;;6224280;28;20234;-63
2021/12/09 11:19:24;;;;;;;61.20;39.03;;;;;;;;;;6235759;28;20463;-63
2021/12/09 11:22:46;;;;;;;62.73;41.37;;;;;;;;;;6234805;28;20239;-62
2021/12/09 11:26:29;;;;;;;65.73;41.23;;;;;;;;;;6234399;28;20228;-63
2021/12/09 11:29:54;;;;;;;67.10;43.57;;;;;;;;;;6233571;28;20228;-62
2021/12/09 11:33:31;;;;;;;59.37;39.47;;;;;;;;;;6227852;28;20614;-63
2021/12/09 11:36:57;;;;;;;66.53;40.90;;;;;;;;;;6223760;28;20221;-62
2021/12/09 11:40:29;;;;;;;62.53;38.60;;;;;;;;;;6224817;28;20219;-64
2021/12/09 11:43:52;;;;;;;70.10;40.33;;;;;;;;;;6238857;28;20240;-64
2021/12/09 11:47:13;;;;;;;62.60;40.17;;;;;;;;;;6224484;28;20232;-64
2021/12/09 11:50:38;;;;;;;65.60;39.30;;;;;;;;;;6223563;28;20615;-62
2021/12/09 11:53:59;;;;;;;66.17;40.70;;;;;;;;;;6236580;28;20591;-61
2021/12/09 11:57:34;;;;;;;65.83;41.67;;;;;;;;;;6227865;28;20225;-61
2021/12/09 12:12:43;;;;;;;63.70;40.27;;;;;;;;;;6206645;28;20236;-62
2021/12/09 12:16:32;;;;;;;67.63;40.63;;;;;;;;;;6229963;28;20224;-63
2021/12/09 12:20:15;;;;;;;60.27;38.80;;;;;;;;;;6202650;28;20299;-63
2021/12/09 12:23:46;;;;;;;60.90;43.03;;;;;;;;;;6232345;28;20241;-63
2021/12/09 12:27:28;;;;;;;70.30;43.50;;;;;;;;;;6231804;28;20228;-63
2021/12/09 12:31:21;;;;;;;70.87;45.90;;;;;;;;;;6228451;28;20478;-63
2021/12/09 12:35:03;;;;;;;64.87;42.87;;;;;;;;;;6225510;28;20661;-63
2021/12/09 12:38:36;;;;;;;68.40;41.70;;;;;;;;;;6227620;28;20224;-63
2021/12/09 12:41:59;;;;;;;73.60;43.70;;;;;;;;;;6224380;28;20227;-63
2021/12/09 12:49:23;;;;;;;60.57;39.27;;;;;;;;;;6150641;28;20234;-61
2021/12/09 12:52:45;;;;;;;66.53;41.63;;;;;;;;;;6230648;28;20232;-62
2021/12/09 12:56:11;;;;;;;61.40;40.47;;;;;;;;;;6235738;28;20236;-62
2021/12/09 12:59:34;;;;;;;60.50;41.60;;;;;;;;;;6235520;28;20232;-62
2021/12/09 13:03:12;;;;;;;65.00;42.53;;;;;;;;;;6228837;28;20240;-63
2021/12/09 13:06:47;;;;;;;66.70;42.20;;;;;;;;;;6230426;28;20240;-63
2021/12/09 13:10:30;;;;;;;63.63;40.13;;;;;;;;;;6235021;28;20220;-62
2021/12/09 13:13:59;;;;;;;65.70;42.67;;;;;;;;;;6223815;28;20228;-63
2021/12/09 13:17:37;;;;;;;67.40;42.17;;;;;;;;;;6236388;28;20244;-64
2021/12/09 13:20:58;;;;;;;60.90;40.23;;;;;;;;;;6226419;28;20232;-64
2021/12/09 13:24:42;;;;;;;63.03;39.43;;;;;;;;;;6231486;28;20568;-63
2021/12/09 13:28:05;;;;;;;60.27;40.20;;;;;;;;;;6229937;28;20221;-63
2021/12/09 13:31:46;;;;;;;63.77;40.53;;;;;;;;;;6231664;28;20501;-62
2021/12/09 13:35:12;;;;;;;61.23;41.83;;;;;;;;;;6231209;28;20232;-64
2021/12/09 13:39:10;;;;;;;63.90;40.20;;;;;;;;;;6234757;28;20533;-63
2021/12/09 13:46:21;;;;;;;67.53;42.43;;;;;;;;;;6233516;28;20521;-64
2021/12/09 13:49:49;;;;;;;65.23;41.70;;;;;;;;;;6230892;28;20610;-63
2021/12/09 13:56:48;;;;;;;68.13;44.27;;;;;;;;;;6233350;28;20236;-63
2021/12/09 14:00:34;;;;;;;64.90;40.50;;;;;;;;;;6233133;28;20240;-61
2021/12/09 14:03:55;;;;;;;67.93;41.93;;;;;;;;;;6237359;28;20614;-63
2021/12/09 14:07:22;;;;;;;65.07;43.27;;;;;;;;;;6230810;28;20764;-64
2021/12/09 14:10:48;;;;;;;67.63;42.30;;;;;;;;;;6233388;28;20252;-63
2021/12/09 14:14:15;;;;;;;66.37;41.07;;;;;;;;;;6232696;28;21375;-64
2021/12/09 14:17:40;;;;;;;71.30;40.87;;;;;;;;;;6229577;28;20327;-64
2021/12/09 14:21:00;;;;;;;70.40;44.67;;;;;;;;;;6240773;28;20861;-62
2021/12/09 14:24:24;;;;;;;69.97;44.93;;;;;;;;;;6239742;28;20249;-64
2021/12/09 14:27:49;;;;;;;69.87;42.87;;;;;;;;;;6240777;28;20228;-64
2021/12/09 14:31:10;;;;;;;72.67;43.83;;;;;;;;;;6241923;28;20588;-63
2021/12/09 14:34:42;;;;;;;74.80;44.83;;;;;;;;;;6236395;28;20233;-63
2021/12/09 14:38:03;;;;;;;74.07;44.13;;;;;;;;;;6234722;28;20248;-62
2021/12/09 14:41:28;;;;;;;79.37;46.13;;;;;;;;;;6229987;28;20229;-62
2021/12/09 14:45:00;;;;;;;74.63;45.87;;;;;;;;;;6237442;28;20233;-63
2021/12/09 14:48:28;;;;;;;72.53;47.77;;;;;;;;;;6234616;28;20517;-64
2021/12/09 14:51:53;;;;;;;75.00;44.33;;;;;;;;;;6218397;28;20665;-64
2021/12/09 14:55:17;;;;;;;73.60;43.90;;;;;;;;;;6226595;28;20216;-63
2021/12/09 14:58:40;;;;;;;74.20;46.27;;;;;;;;;;6235199;28;20225;-63
2021/12/09 15:02:11;;;;;;;73.27;48.37;;;;;;;;;;6235775;28;20229;-63
2021/12/09 15:05:33;;;;;;;73.20;44.20;;;;;;;;;;6240748;28;20240;-63
2021/12/09 15:09:05;;;;;;;74.57;46.20;;;;;;;;;;6215539;28;20623;-63
2021/12/09 15:12:31;;;;;;;71.80;43.73;;;;;;;;;;6236444;28;20315;-63
2021/12/09 15:16:03;;;;;;;71.60;44.77;;;;;;;;;;6218869;28;20240;-64
2021/12/09 15:19:24;;;;;;;74.70;48.93;;;;;;;;;;6231676;28;20326;-64
2021/12/09 15:22:54;;;;;;;76.37;46.37;;;;;;;;;;6238120;28;20260;-63
2021/12/09 15:26:20;;;;;;;72.30;46.77;;;;;;;;;;6220119;28;20232;-64
2021/12/09 15:29:47;;;;;;;72.53;44.23;;;;;;;;;;6230719;28;20241;-63
2021/12/09 15:33:08;;;;;;;79.87;46.83;;;;;;;;;;6233421;28;20780;-63
2021/12/09 15:36:32;;;;;;;77.53;46.20;;;;;;;;;;6235961;28;20228;-63
2021/12/09 15:39:53;;;;;;;76.07;47.17;;;;;;;;;;6235889;28;20241;-62
2021/12/09 15:43:19;;;;;;;71.03;44.67;;;;;;;;;;6232243;28;20256;-64
2021/12/09 15:46:44;;;;;;;80.60;50.73;;;;;;;;;;6241732;28;20232;-64
2021/12/09 15:50:07;;;;;;;76.63;46.57;;;;;;;;;;6237186;28;20224;-63
2021/12/09 15:53:32;;;;;;;84.23;46.93;;;;;;;;;;6239961;28;20224;-63
2021/12/09 15:56:56;;;;;;;80.03;50.47;;;;;;;;;;6237456;28;20319;-63
2021/12/09 16:00:23;;;;;;;81.17;46.17;;;;;;;;;;6231839;28;20224;-64
2021/12/09 16:03:44;;;;;;;78.47;46.43;;;;;;;;;;6235307;28;20232;-64
2021/12/09 16:07:05;;;;;;;80.87;46.43;;;;;;;;;;6232344;28;20224;-63
2021/12/09 16:10:26;;;;;;;83.90;48.23;;;;;;;;;;6225457;28;20679;-63
2021/12/09 16:13:47;;;;;;;85.47;48.50;;;;;;;;;;6236403;28;20232;-63
2021/12/09 16:17:09;;;;;;;85.77;50.33;;;;;;;;;;6233436;28;20229;-64
2021/12/09 16:20:36;;;;;;;86.63;47.87;;;;;;;;;;6243329;28;20225;-62
2021/12/09 16:23:57;;;;;;;81.80;48.37;;;;;;;;;;6234629;28;20262;-63
2021/12/09 16:27:19;;;;;;;81.00;48.70;;;;;;;;;;6231797;28;20224;-64
2021/12/09 16:30:40;;;;;;;76.80;45.80;;;;;;;;;;6238565;28;20492;-64
2021/12/09 16:34:02;;;;;;;78.27;48.30;;;;;;;;;;6239584;28;20224;-64
2021/12/09 16:37:23;;;;;;;82.70;48.97;;;;;;;;;;6233953;28;20224;-62
2021/12/09 16:40:46;;;;;;;93.17;50.50;;;;;;;;;;6237792;28;20420;-62
2021/12/09 16:44:07;;;;;;;85.37;52.70;;;;;;;;;;6236471;28;20229;-62
2021/12/09 16:47:28;;;;;;;86.30;50.07;;;;;;;;;;6228817;28;20619;-62
2021/12/09 16:50:51;;;;;;;85.20;48.20;;;;;;;;;;6224657;28;20236;-63
2021/12/09 16:54:16;;;;;;;67.33;41.63;;;;;;;;;;6216637;28;20390;-64
2021/12/09 16:57:44;;;;;;;88.07;48.70;;;;;;;;;;6231046;28;20503;-64
2021/12/09 17:01:07;;;;;;;78.73;49.00;;;;;;;;;;6229744;28;20228;-63
2021/12/09 17:04:29;;;;;;;80.67;47.93;;;;;;;;;;6243766;28;20232;-64
2021/12/09 17:07:53;;;;;;;94.10;53.30;;;;;;;;;;6233412;28;20676;-61
2021/12/09 17:11:14;;;;;;;139.13;74.15;;;;;;;;;;6233820;28;20797;-66
2021/12/09 17:14:35;;;;;;;127.60;106.40;;;;;;;;;;6224210;28;20345;-65
2021/12/09 17:17:57;;;;;;;237.50;175.00;;;;;;;;;;6230682;28;20260;-64
2021/12/09 17:21:18;;;;;;;85.60;52.30;;;;;;;;;;6229057;28;20594;-64
2021/12/09 17:24:40;;;;;;;74.37;45.93;;;;;;;;;;6235044;28;20606;-63
2021/12/09 17:28:05;;;;;;;77.20;50.07;;;;;;;;;;6233376;28;20538;-64
2021/12/09 17:31:37;;;;;;;87.57;56.40;;;;;;;;;;6229350;28;20220;-64
2021/12/09 17:34:58;;;;;;;92.73;61.53;;;;;;;;;;6233205;28;20220;-64
2021/12/09 17:38:18;;;;;;;86.57;50.37;;;;;;;;;;6233504;28;20232;-64
2021/12/09 17:41:41;;;;;;;80.07;46.37;;;;;;;;;;6233314;28;20236;-63
2021/12/09 17:45:03;;;;;;;62.10;41.20;;;;;;;;;;6227812;28;20629;-65
2021/12/09 17:48:24;;;;;;;77.13;47.07;;;;;;;;;;6210544;28;20561;-64
2021/12/09 17:51:50;;;;;;;78.40;49.67;;;;;;;;;;6205358;28;20533;-65
2021/12/09 17:55:12;;;;;;;75.83;47.87;;;;;;;;;;6218492;28;20216;-64
2021/12/09 17:58:34;;;;;;;81.30;49.23;;;;;;;;;;6231808;28;20225;-64
2021/12/09 18:01:56;;;;;;;79.37;48.40;;;;;;;;;;6231012;28;20470;-64
2021/12/09 18:05:19;;;;;;;80.37;49.37;;;;;;;;;;6236591;28;20659;-63
2021/12/09 18:08:40;;;;;;;78.77;47.23;;;;;;;;;;6225121;28;20224;-62
2021/12/09 18:12:00;;;;;;;79.13;48.27;;;;;;;;;;6224892;28;20251;-64
2021/12/09 18:15:28;;;;;;;79.80;46.43;;;;;;;;;;6218743;28;20261;-64
2021/12/09 18:18:49;;;;;;;80.80;51.80;;;;;;;;;;6231198;28;20229;-64
2021/12/09 18:22:10;;;;;;;76.50;46.50;;;;;;;;;;6231827;28;20237;-64
2021/12/09 18:25:31;;;;;;;69.20;45.67;;;;;;;;;;6233107;28;20252;-63
2021/12/09 18:28:52;;;;;;;77.77;47.13;;;;;;;;;;6233425;28;20253;-64
2021/12/09 18:32:14;;;;;;;75.50;47.63;;;;;;;;;;6223815;28;20228;-65
2021/12/09 18:35:38;;;;;;;73.23;45.73;;;;;;;;;;6234538;28;20224;-65
2021/12/09 18:39:00;;;;;;;75.60;44.30;;;;;;;;;;6231842;28;20233;-64
2021/12/09 18:42:20;;;;;;;77.47;48.37;;;;;;;;;;6242282;28;20356;-65
2021/12/09 18:45:42;;;;;;;75.70;46.50;;;;;;;;;;6235468;28;20230;-65
2021/12/09 18:49:04;;;;;;;72.53;44.27;;;;;;;;;;6238480;28;20545;-64
2021/12/09 18:52:24;;;;;;;86.13;50.87;;;;;;;;;;6230150;28;20264;-64
2021/12/09 18:55:48;;;;;;;71.90;44.30;;;;;;;;;;6237299;28;20335;-63
2021/12/09 18:59:09;;;;;;;75.37;48.30;;;;;;;;;;6232859;28;20229;-64
2021/12/09 19:02:30;;;;;;;74.00;45.00;;;;;;;;;;6240340;28;20236;-64
2021/12/09 19:05:54;;;;;;;69.03;45.47;;;;;;;;;;6241999;28;20434;-64
2021/12/09 19:09:15;;;;;;;72.50;45.40;;;;;;;;;;6214343;28;20239;-64
2021/12/09 19:12:36;;;;;;;74.80;43.50;;;;;;;;;;6242047;28;20235;-64
2021/12/09 19:15:59;;;;;;;69.47;46.40;;;;;;;;;;6238316;28;20232;-64
2021/12/09 19:19:21;;;;;;;75.33;45.90;;;;;;;;;;6242824;28;20228;-64
2021/12/09 19:22:45;;;;;;;69.93;44.53;;;;;;;;;;6240390;28;20327;-64
2021/12/09 19:26:09;;;;;;;70.93;46.60;;;;;;;;;;6235801;28;20630;-65
2021/12/09 19:29:30;;;;;;;69.17;43.30;;;;;;;;;;6227155;28;20228;-65
2021/12/09 19:32:52;;;;;;;59.33;38.13;;;;;;;;;;6225593;28;20454;-65
2021/12/09 19:36:14;;;;;;;72.33;44.93;;;;;;;;;;6250260;28;20262;-64
2021/12/09 19:39:38;;;;;;;73.10;45.30;;;;;;;;;;6244167;28;20327;-64
2021/12/09 19:42:59;;;;;;;74.43;45.70;;;;;;;;;;6230048;28;20225;-65
2021/12/09 19:46:21;;;;;;;74.03;43.30;;;;;;;;;;6232431;28;20240;-65
2021/12/09 19:49:41;;;;;;;69.57;43.30;;;;;;;;;;6233234;28;20693;-62
2021/12/09 19:53:03;;;;;;;71.03;44.20;;;;;;;;;;6228243;28;20232;-63
2021/12/09 19:56:25;;;;;;;70.00;44.57;;;;;;;;;;6229819;28;20380;-64
2021/12/09 19:59:46;;;;;;;67.77;41.87;;;;;;;;;;6236653;28;20228;-64
2021/12/09 20:03:08;;;;;;;72.97;46.47;;;;;;;;;;6232499;28;20257;-62
2021/12/09 20:06:29;;;;;;;65.20;41.20;;;;;;;;;;6234008;28;20236;-62
2021/12/09 20:09:50;;;;;;;66.37;42.43;;;;;;;;;;6234919;28;20236;-62